Time;durP1;ratioP1;P1;durP2;ratioP2;P2;SDS_P1;SDS_P2;PMS_P1;PMS_P2;Temp;Humidity;BMP_temperature;BMP_pressure;BME280_temperature;BME280_humidity;BME280_pressure;Samples;Min_cycle;Max_cycle;Signal;HPM_P1;HPM_P2
2021/10/15 00:00:24;;;;;;;;;;;;;;;;;;5049222;28;19933;-72
2021/10/15 00:02:51;;;;;;;;;;;;;;;;;;5055417;28;19932;-71
2021/10/15 00:05:18;;;;;;;;;;;;;;;;;;5055112;28;20377;-71
2021/10/15 00:07:45;;;;;;;;;;;;;;;;;;5055191;28;20468;-71
2021/10/15 00:10:14;;;;;;;;;;;;;;;;;;5052989;28;19933;-73
2021/10/15 00:12:41;;;;;;;;;;;;;;;;;;5060006;28;19931;-71
2021/10/15 00:15:08;;;;;;;;;;;;;;;;;;5053733;28;19925;-71
2021/10/15 00:17:35;;;;;;;;;;;;;;;;;;5060428;28;19932;-71
2021/10/15 00:20:02;;;;;;;;;;;;;;;;;;5055870;28;19925;-73
2021/10/15 00:22:29;;;;;;;;;;;;;;;;;;5058683;28;19943;-73
2021/10/15 00:24:56;;;;;;;;;;;;;;;;;;5050090;28;21295;-73
2021/10/15 00:27:23;;;;;;;;;;;;;;;;;;5053597;28;19931;-71
2021/10/15 00:29:50;;;;;;;;;;;;;;;;;;5051824;28;19925;-71
2021/10/15 00:32:17;;;;;;;;;;;;;;;;;;5053698;28;19931;-71
2021/10/15 00:34:44;;;;;;;;;;;;;;;;;;5051355;28;19929;-71
2021/10/15 00:37:12;;;;;;;;;;;;;;;;;;5052891;28;19932;-71
2021/10/15 00:39:39;;;;;;;;;;;;;;;;;;5053381;28;19925;-71
2021/10/15 00:42:06;;;;;;;;;;;;;;;;;;5048626;28;19925;-71
2021/10/15 00:44:32;;;;;;;;;;;;;;;;;;5050203;28;19929;-71
2021/10/15 00:46:59;;;;;;;;;;;;;;;;;;5049868;28;20012;-73
2021/10/15 00:49:26;;;;;;;;;;;;;;;;;;5057943;28;20114;-70
2021/10/15 00:51:53;;;;;;;;;;;;;;;;;;5057010;28;19931;-71
2021/10/15 00:54:20;;;;;;;;;;;;;;;;;;5046266;28;19925;-70
2021/10/15 00:56:47;;;;;;;;;;;;;;;;;;5051360;28;19929;-71
2021/10/15 00:59:14;;;;;;;;;;;;;;;;;;5053128;28;19944;-70
2021/10/15 01:01:41;;;;;;;;;;;;;;;;;;5056271;28;19931;-70
2021/10/15 01:04:08;;;;;;;;;;;;;;;;;;5049387;28;20281;-70
2021/10/15 01:06:35;;;;;;;;;;;;;;;;;;5056735;28;19925;-72
2021/10/15 01:09:02;;;;;;;;;;;;;;;;;;5049903;28;19928;-73
2021/10/15 01:11:29;;;;;;;;;;;;;;;;;;5050002;28;19924;-72
2021/10/15 01:13:56;;;;;;;;;;;;;;;;;;5050350;28;19932;-71
2021/10/15 01:16:23;;;;;;;;;;;;;;;;;;5047272;28;19925;-71
2021/10/15 01:18:50;;;;;;;;;;;;;;;;;;5052551;28;19947;-71
2021/10/15 01:21:17;;;;;;;;;;;;;;;;;;5054892;28;19924;-71
2021/10/15 01:23:44;;;;;;;;;;;;;;;;;;5051187;28;20027;-72
2021/10/15 01:26:11;;;;;;;;;;;;;;;;;;5050578;28;19925;-71
2021/10/15 01:28:38;;;;;;;;;;;;;;;;;;5047158;28;19925;-71
2021/10/15 01:31:05;;;;;;;;;;;;;;;;;;5043162;28;19928;-72
2021/10/15 01:33:32;;;;;;;;;;;;;;;;;;5046154;28;20008;-71
2021/10/15 01:35:58;;;;;;;;;;;;;;;;;;5050735;28;19931;-71
2021/10/15 01:38:25;;;;;;;;;;;;;;;;;;5049843;28;19925;-71
2021/10/15 01:40:52;;;;;;;;;;;;;;;;;;5051091;28;19935;-71
2021/10/15 01:43:19;;;;;;;;;;;;;;;;;;5047944;28;19933;-71
2021/10/15 01:45:46;;;;;;;;;;;;;;;;;;5049540;28;19931;-70
2021/10/15 01:48:13;;;;;;;;;;;;;;;;;;5048516;28;20032;-70
2021/10/15 01:50:40;;;;;;;;;;;;;;;;;;5050938;28;19925;-71
2021/10/15 01:53:07;;;;;;;;;;;;;;;;;;5049019;28;19925;-70
2021/10/15 01:55:34;;;;;;;;;;;;;;;;;;5049362;28;20237;-72
2021/10/15 01:58:01;;;;;;;;;;;;;;;;;;5054994;28;19932;-72
2021/10/15 02:00:28;;;;;;;;;;;;;;;;;;5054190;28;19925;-73
2021/10/15 02:02:55;;;;;;;;;;;;;;;;;;5051546;28;19929;-72
2021/10/15 02:05:22;;;;;;;;;;;;;;;;;;5049742;28;19928;-72
2021/10/15 02:07:49;;;;;;;;;;;;;;;;;;5049559;28;19924;-72
2021/10/15 02:10:16;;;;;;;;;;;;;;;;;;5049017;28;20214;-72
2021/10/15 02:12:42;;;;;;;;;;;;;;;;;;5050838;28;20027;-72
2021/10/15 02:15:09;;;;;;;;;;;;;;;;;;5049165;28;19924;-72
2021/10/15 02:17:36;;;;;;;;;;;;;;;;;;5044604;28;19936;-72
2021/10/15 02:20:03;;;;;;;;;;;;;;;;;;5050814;28;19925;-72
2021/10/15 02:22:30;;;;;;;;;;;;;;;;;;5045748;28;20385;-71
2021/10/15 02:24:57;;;;;;;;;;;;;;;;;;5047118;28;20391;-71
2021/10/15 02:27:24;;;;;;;;;;;;;;;;;;5045345;28;19925;-70
2021/10/15 02:29:51;;;;;;;;;;;;;;;;;;5046218;28;19932;-70
2021/10/15 02:32:18;;;;;;;;;;;;;;;;;;5048833;28;20285;-72
2021/10/15 02:34:45;;;;;;;;;;;;;;;;;;5045467;28;20011;-70
2021/10/15 02:37:12;;;;;;;;;;;;;;;;;;5045175;28;19931;-70
2021/10/15 02:39:39;;;;;;;;;;;;;;;;;;5049585;28;20355;-72
2021/10/15 02:42:06;;;;;;;;;;;;;;;;;;5050433;28;19931;-71
2021/10/15 02:44:34;;;;;;;;;;;;;;;;;;5048166;28;19935;-71
2021/10/15 02:47:01;;;;;;;;;;;;;;;;;;5050770;28;20385;-73
2021/10/15 02:49:28;;;;;;;;;;;;;;;;;;5049610;28;19933;-71
2021/10/15 02:51:54;;;;;;;;;;;;;;;;;;5051678;28;19932;-72
2021/10/15 02:54:21;;;;;;;;;;;;;;;;;;5050487;28;19999;-72
2021/10/15 02:56:48;;;;;;;;;;;;;;;;;;5046938;28;19925;-72
2021/10/15 02:59:15;;;;;;;;;;;;;;;;;;5044963;28;19935;-71
2021/10/15 03:01:42;;;;;;;;;;;;;;;;;;5050808;28;19925;-72
2021/10/15 03:04:09;;;;;;;;;;;;;;;;;;5049607;28;19924;-72
2021/10/15 03:06:36;;;;;;;;;;;;;;;;;;5043063;28;20377;-72
2021/10/15 03:09:03;;;;;;;;;;;;;;;;;;5048243;28;19933;-71
2021/10/15 03:11:30;;;;;;;;;;;;;;;;;;5047597;28;19925;-70
2021/10/15 03:13:57;;;;;;;;;;;;;;;;;;5041473;28;20241;-71
2021/10/15 03:16:24;;;;;;;;;;;;;;;;;;5052033;28;19929;-70
2021/10/15 03:18:51;;;;;;;;;;;;;;;;;;5049055;28;19925;-71
2021/10/15 03:21:18;;;;;;;;;;;;;;;;;;5048474;28;19929;-71
2021/10/15 03:23:45;;;;;;;;;;;;;;;;;;5052188;28;20411;-72
2021/10/15 03:26:12;;;;;;;;;;;;;;;;;;5043820;28;19933;-72
2021/10/15 03:28:39;;;;;;;;;;;;;;;;;;5050303;28;19929;-72
2021/10/15 03:31:06;;;;;;;;;;;;;;;;;;5051091;28;20384;-72
2021/10/15 03:33:33;;;;;;;;;;;;;;;;;;5046885;28;20799;-72
2021/10/15 03:36:00;;;;;;;;;;;;;;;;;;5048388;28;19925;-72
2021/10/15 03:38:27;;;;;;;;;;;;;;;;;;5051224;28;20299;-72
2021/10/15 03:40:54;;;;;;;;;;;;;;;;;;5048008;28;19925;-72
2021/10/15 03:43:21;;;;;;;;;;;;;;;;;;5069928;22;20302;-57
2021/10/15 03:45:48;;;;;;;;;;;;;;;;;;5068868;28;19925;-57
2021/10/15 03:48:15;;;;;;;;;;;;;;;;;;5078179;28;19925;-57
2021/10/15 03:50:42;;;;;;;;;;;;;;;;;;5073730;28;20303;-57
2021/10/15 03:53:09;;;;;;;;;;;;;;;;;;5077746;28;19930;-58
2021/10/15 03:55:36;;;;;;;;;;;;;;;;;;5086996;28;19928;-57
2021/10/15 03:58:02;;;;;;;;;;;;;;;;;;5095701;28;19924;-57
2021/10/15 04:00:30;;;;;;;;;;;;;;;;;;5088082;28;20311;-58
2021/10/15 04:02:57;;;;;;;;;;;;;;;;;;5091825;28;19932;-58
2021/10/15 04:05:24;;;;;;;;;;;;;;;;;;5087828;28;20015;-58
2021/10/15 04:07:50;;;;;;;;;;;;;;;;;;5084686;28;19924;-58
2021/10/15 04:10:17;;;;;;;;;;;;;;;;;;5087565;28;19928;-58
2021/10/15 04:12:44;;;;;;;;;;;;;;;;;;5085789;28;19930;-58
2021/10/15 04:15:12;;;;;;;;;;;;;;;;;;5089741;28;19938;-54
2021/10/15 04:17:39;;;;;;;;;;;;;;;;;;5090598;28;19924;-58
2021/10/15 04:20:06;;;;;;;;;;;;;;;;;;5084768;28;19931;-58
2021/10/15 04:22:33;;;;;;;;;;;;;;;;;;5090601;28;19924;-58
2021/10/15 04:24:59;;;;;;;;;;;;;;;;;;5089096;28;19924;-58
2021/10/15 04:27:26;;;;;;;;;;;;;;;;;;5103995;28;20283;-57
2021/10/15 04:29:53;;;;;;;;;;;;;;;;;;5090731;28;20299;-55
2021/10/15 04:32:20;;;;;;;;;;;;;;;;;;5094861;28;19924;-57
2021/10/15 04:34:47;;;;;;;;;;;;;;;;;;5092905;28;20414;-58
2021/10/15 04:37:14;;;;;;;;;;;;;;;;;;5092881;28;19928;-56
2021/10/15 04:39:41;;;;;;;;;;;;;;;;;;5091036;28;19924;-58
2021/10/15 04:42:08;;;;;;;;;;;;;;;;;;5098828;28;19924;-57
2021/10/15 04:44:35;;;;;;;;;;;;;;;;;;5088097;28;19924;-58
2021/10/15 04:47:02;;;;;;;;;;;;;;;;;;5092004;28;19950;-58
2021/10/15 04:49:29;;;;;;;;;;;;;;;;;;5092193;28;19924;-57
2021/10/15 04:51:56;;;;;;;;;;;;;;;;;;5089842;28;19931;-58
2021/10/15 04:54:23;;;;;;;;;;;;;;;;;;5093495;28;19951;-58
2021/10/15 04:56:50;;;;;;;;;;;;;;;;;;5093425;28;19924;-57
2021/10/15 04:59:17;;;;;;;;;;;;;;;;;;5093558;28;20307;-57
2021/10/15 05:01:44;;;;;;;;;;;;;;;;;;5089291;28;19935;-56
2021/10/15 05:04:11;;;;;;;;;;;;;;;;;;5093103;28;19928;-57
2021/10/15 05:06:38;;;;;;;;;;;;;;;;;;5089496;28;19924;-58
2021/10/15 05:09:15;;;;;;;;;;;;;;;;;;5087057;28;19943;-58
2021/10/15 05:11:42;;;;;;;;;;;;;;;;;;5090807;28;20298;-58
2021/10/15 05:14:09;;;;;;;;;;;;;;;;;;5089601;28;19924;-56
2021/10/15 05:16:36;;;;;;;;;;;;;;;;;;5088288;28;19924;-58
2021/10/15 05:19:03;;;;;;;;;;;;;;;;;;5086397;28;20296;-58
2021/10/15 05:21:30;;;;;;;;;;;;;;;;;;5092683;28;19931;-58
2021/10/15 05:23:57;;;;;;;;;;;;;;;;;;5091932;28;19931;-57
2021/10/15 05:26:23;;;;;;;;;;;;;;;;;;5091327;28;20371;-58
2021/10/15 05:28:50;;;;;;;;;;;;;;;;;;5088553;28;20407;-58
2021/10/15 05:31:17;;;;;;;;;;;;;;;;;;5089077;28;19928;-58
2021/10/15 05:33:44;;;;;;;;;;;;;;;;;;5090351;28;19939;-57
2021/10/15 05:36:11;;;;;;;;;;;;;;;;;;5099343;28;19947;-58
2021/10/15 05:38:38;;;;;;;;;;;;;;;;;;5092663;28;19931;-58
2021/10/15 05:41:05;;;;;;;;;;;;;;;;;;5092447;28;19924;-57
2021/10/15 05:43:32;;;;;;;;;;;;;;;;;;5097862;28;19930;-56
2021/10/15 05:45:59;;;;;;;;;;;;;;;;;;5093830;28;19928;-57
2021/10/15 05:48:26;;;;;;;;;;;;;;;;;;5090918;28;20406;-61
2021/10/15 05:50:53;;;;;;;;;;;;;;;;;;5092332;28;19935;-58
2021/10/15 05:53:21;;;;;;;;;;;;;;;;;;5092561;28;19932;-59
2021/10/15 05:56:02;;;;;;;;;;;;;;;;;;5087852;28;20368;-60
2021/10/15 06:01:13;;;;;;;;;;;;;;;;;;5096934;28;20329;-60
2021/10/15 06:03:43;;;;;;;;;;;;;;;;;;5086247;28;20291;-61
2021/10/15 06:14:25;;;;;;;;;;;;;;;;;;5088457;28;19915;-61
2021/10/15 06:16:54;;;;;;;;;;;;;;;;;;5081533;28;21316;-60
2021/10/15 06:19:22;;;;;;;;;;;;;;;;;;5076890;28;19939;-60
2021/10/15 06:21:49;;;;;;;;;;;;;;;;;;5084411;28;20296;-59
2021/10/15 06:24:16;;;;;;;;;;;;;;;;;;5079764;28;19928;-59
2021/10/15 06:26:43;;;;;;;;;;;;;;;;;;5084345;28;19924;-60
2021/10/15 06:29:10;;;;;;;;;;;;;;;;;;5080239;28;20014;-60
2021/10/15 06:31:37;;;;;;;;;;;;;;;;;;5088389;28;19924;-61
2021/10/15 06:34:04;;;;;;;;;;;;;;;;;;5094898;28;20003;-60
2021/10/15 06:36:31;;;;;;;;;;;;;;;;;;5098455;28;19928;-60
2021/10/15 06:38:57;;;;;;;;;;;;;;;;;;5095889;28;19924;-60
2021/10/15 06:41:24;;;;;;;;;;;;;;;;;;5097512;28;20295;-59
2021/10/15 06:43:51;;;;;;;;;;;;;;;;;;5084299;28;19932;-60
2021/10/15 06:46:20;;;;;;;;;;;;;;;;;;5093380;28;19931;-60
2021/10/15 06:48:47;;;;;;;;;;;;;;;;;;5085377;28;19931;-59
2021/10/15 06:51:14;;;;;;;;;;;;;;;;;;5087895;28;19935;-58
2021/10/15 06:53:41;;;;;;;;;;;;;;;;;;5089054;28;19928;-60
2021/10/15 06:56:08;;;;;;;;;;;;;;;;;;5091189;28;19924;-59
2021/10/15 06:58:35;;;;;;;;;;;;;;;;;;5087236;28;19931;-60
2021/10/15 07:01:02;;;;;;;;;;;;;;;;;;5089403;28;19924;-60
2021/10/15 07:03:29;;;;;;;;;;;;;;;;;;5088864;28;19924;-60
2021/10/15 07:05:56;;;;;;;;;;;;;;;;;;5089654;28;20299;-60
2021/10/15 07:08:24;;;;;;;;;;;;;;;;;;5089962;28;19924;-59
2021/10/15 07:10:51;;;;;;;;;;;;;;;;;;5088724;28;20086;-60
2021/10/15 07:13:17;;;;;;;;;;;;;;;;;;5083073;28;19928;-60
2021/10/15 07:15:46;;;;;;;;;;;;;;;;;;5086713;28;19924;-61
2021/10/15 07:18:13;;;;;;;;;;;;;;;;;;5081520;28;19924;-60
2021/10/15 07:20:42;;;;;;;;;;;;;;;;;;5079999;28;19924;-61
2021/10/15 07:23:09;;;;;;;;;;;;;;;;;;5086528;28;19924;-60
2021/10/15 07:25:36;;;;;;;;;;;;;;;;;;5093479;28;19928;-59
2021/10/15 07:28:03;;;;;;;;;;;;;;;;;;5091064;28;19924;-61
2021/10/15 07:30:30;;;;;;;;;;;;;;;;;;5081388;28;19928;-60
2021/10/15 07:32:57;;;;;;;;;;;;;;;;;;5091341;28;19931;-60
2021/10/15 07:35:24;;;;;;;;;;;;;;;;;;5096103;28;19930;-61
2021/10/15 07:37:51;;;;;;;;;;;;;;;;;;5088609;28;19932;-61
2021/10/15 07:40:18;;;;;;;;;;;;;;;;;;5087381;28;19928;-60
2021/10/15 07:42:45;;;;;;;;;;;;;;;;;;5084565;28;19933;-60
2021/10/15 07:45:12;;;;;;;;;;;;;;;;;;5088924;28;19924;-61
2021/10/15 07:47:39;;;;;;;;;;;;;;;;;;5087360;28;19928;-61
2021/10/15 07:50:06;;;;;;;;;;;;;;;;;;5088784;28;19930;-60
2021/10/15 07:52:33;;;;;;;;;;;;;;;;;;5085693;28;20295;-59
2021/10/15 07:54:59;;;;;;;;;;;;;;;;;;5088640;28;19936;-60
2021/10/15 07:57:26;;;;;;;;;;;;;;;;;;5090876;28;19931;-58
2021/10/15 07:59:53;;;;;;;;;;;;;;;;;;5084918;28;19928;-58
2021/10/15 08:02:24;;;;;;;;;;;;;;;;;;5087988;28;19924;-59
2021/10/15 08:04:51;;;;;;;;;;;;;;;;;;5087387;28;19970;-58
2021/10/15 08:07:18;;;;;;;;;;;;;;;;;;5090637;28;19924;-58
2021/10/15 08:09:45;;;;;;;;;;;;;;;;;;5086159;28;19931;-59
2021/10/15 08:12:12;;;;;;;;;;;;;;;;;;5093152;28;19931;-61
2021/10/15 08:14:39;;;;;;;;;;;;;;;;;;5086595;28;19931;-55
2021/10/15 08:17:06;;;;;;;;;;;;;;;;;;5088760;28;20302;-57
2021/10/15 08:19:33;;;;;;;;;;;;;;;;;;5093785;28;19924;-57
2021/10/15 08:22:00;;;;;;;;;;;;;;;;;;5091083;28;19924;-58
2021/10/15 08:24:28;;;;;;;;;;;;;;;;;;5090467;28;19924;-58
2021/10/15 08:26:55;;;;;;;;;;;;;;;;;;5091757;28;19958;-57
2021/10/15 08:29:23;;;;;;;;;;;;;;;;;;5087326;28;20375;-58
2021/10/15 08:31:51;;;;;;;;;;;;;;;;;;5085764;28;19924;-58
2021/10/15 08:34:17;;;;;;;;;;;;;;;;;;5093951;28;19931;-59
2021/10/15 08:36:44;;;;;;;;;;;;;;;;;;5095960;28;19924;-59
2021/10/15 08:39:11;;;;;;;;;;;;;;;;;;5099085;28;19953;-59
2021/10/15 08:41:38;;;;;;;;;;;;;;;;;;5087816;28;19932;-59
2021/10/15 08:44:05;;;;;;;;;;;;;;;;;;5086120;28;19932;-59
2021/10/15 08:46:32;;;;;;;;;;;;;;;;;;5092654;28;19924;-59
2021/10/15 08:48:59;;;;;;;;;;;;;;;;;;5085026;28;20359;-60
2021/10/15 08:51:26;;;;;;;;;;;;;;;;;;5094351;28;20018;-60
2021/10/15 08:53:53;;;;;;;;;;;;;;;;;;5092840;28;19924;-60
2021/10/15 08:56:20;;;;;;;;;;;;;;;;;;5086791;28;19930;-59
2021/10/15 08:58:48;;;;;;;;;;;;;;;;;;5091447;28;20494;-60
2021/10/15 09:01:15;;;;;;;;;;;;;;;;;;5087582;28;20392;-60
2021/10/15 09:03:42;;;;;;;;;;;;;;;;;;5092962;28;19924;-59
2021/10/15 09:06:09;;;;;;;;;;;;;;;;;;5090897;28;19928;-60
2021/10/15 09:08:36;;;;;;;;;;;;;;;;;;5089134;28;19943;-58
2021/10/15 09:11:03;;;;;;;;;;;;;;;;;;5084506;28;19924;-59
2021/10/15 09:13:29;;;;;;;;;;;;;;;;;;5090016;28;19924;-57
2021/10/15 09:15:57;;;;;;;;;;;;;;;;;;5089501;28;19931;-59
2021/10/15 09:18:30;;;;;;;;;;;;;;;;;;5083446;28;20030;-58
2021/10/15 09:20:56;;;;;;;;;;;;;;;;;;5085190;28;20019;-59
2021/10/15 09:23:23;;;;;;;;;;;;;;;;;;5083901;28;19928;-58
2021/10/15 09:25:50;;;;;;;;;;;;;;;;;;5087813;28;19924;-58
2021/10/15 09:28:17;;;;;;;;;;;;;;;;;;5100885;28;20394;-59
2021/10/15 09:30:44;;;;;;;;;;;;;;;;;;5087194;28;19924;-60
2021/10/15 09:33:11;;;;;;;;;;;;;;;;;;5082526;28;19932;-60
2021/10/15 09:35:38;;;;;;;;;;;;;;;;;;5089763;28;20411;-60
2021/10/15 09:38:05;;;;;;;;;;;;;;;;;;5094568;28;19932;-61
2021/10/15 09:40:32;;;;;;;;;;;;;;;;;;5086402;28;19924;-60
2021/10/15 09:42:59;;;;;;;;;;;;;;;;;;5086100;28;19928;-59
2021/10/15 09:45:28;;;;;;;;;;;;;;;;;;5089582;28;19975;-60
2021/10/15 09:47:54;;;;;;;;;;;;;;;;;;5090557;28;19931;-59
2021/10/15 09:50:21;;;;;;;;;;;;;;;;;;5095063;28;19924;-60
2021/10/15 09:52:49;;;;;;;;;;;;;;;;;;5088697;28;19931;-59
2021/10/15 09:55:16;;;;;;;;;;;;;;;;;;5084627;28;19953;-59
2021/10/15 09:57:44;;;;;;;;;;;;;;;;;;5090609;28;19924;-59
2021/10/15 10:00:11;;;;;;;;;;;;;;;;;;5090453;28;19931;-59
2021/10/15 10:02:38;;;;;;;;;;;;;;;;;;5086413;28;19924;-60
2021/10/15 10:05:05;;;;;;;;;;;;;;;;;;5083647;28;19931;-59
2021/10/15 10:07:32;;;;;;;;;;;;;;;;;;5088779;28;19947;-59
2021/10/15 10:09:59;;;;;;;;;;;;;;;;;;5084568;28;19924;-59
2021/10/15 10:12:26;;;;;;;;;;;;;;;;;;5084683;28;19928;-59
2021/10/15 10:14:53;;;;;;;;;;;;;;;;;;5082989;28;19938;-59
2021/10/15 10:17:22;;;;;;;;;;;;;;;;;;5088926;28;19932;-60
2021/10/15 10:19:49;;;;;;;;;;;;;;;;;;5080635;28;20015;-59
2021/10/15 10:22:16;;;;;;;;;;;;;;;;;;5087893;28;19966;-59
2021/10/15 10:24:43;;;;;;;;;;;;;;;;;;5083959;28;20337;-60
2021/10/15 10:27:10;;;;;;;;;;;;;;;;;;5092852;28;19924;-60
2021/10/15 10:29:40;;;;;;;;;;;;;;;;;;5082536;28;19923;-60
2021/10/15 10:32:06;;;;;;;;;;;;;;;;;;5080428;28;19956;-60
2021/10/15 10:34:33;;;;;;;;;;;;;;;;;;5083365;28;19975;-59
2021/10/15 10:37:00;;;;;;;;;;;;;;;;;;5087924;28;20310;-59
2021/10/15 10:39:28;;;;;;;;;;;;;;;;;;5089558;28;19975;-59
2021/10/15 10:41:55;;;;;;;;;;;;;;;;;;5086186;28;19936;-60
2021/10/15 10:44:22;;;;;;;;;;;;;;;;;;5089000;28;19924;-59
2021/10/15 10:46:49;;;;;;;;;;;;;;;;;;5090631;28;19931;-59
2021/10/15 10:49:16;;;;;;;;;;;;;;;;;;5091363;28;19928;-61
2021/10/15 10:51:43;;;;;;;;;;;;;;;;;;5086771;28;19924;-61
2021/10/15 10:54:10;;;;;;;;;;;;;;;;;;5088949;28;19924;-60
2021/10/15 10:56:37;;;;;;;;;;;;;;;;;;5084574;28;19924;-60
2021/10/15 10:59:04;;;;;;;;;;;;;;;;;;5086403;28;19929;-60
2021/10/15 11:01:31;;;;;;;;;;;;;;;;;;5087203;28;20014;-60
2021/10/15 11:03:58;;;;;;;;;;;;;;;;;;5085003;28;20023;-60
2021/10/15 11:06:25;;;;;;;;;;;;;;;;;;5084926;28;19966;-60
2021/10/15 11:08:52;;;;;;;;;;;;;;;;;;5086115;28;19928;-60
2021/10/15 11:11:19;;;;;;;;;;;;;;;;;;5086458;28;20315;-60
2021/10/15 11:13:46;;;;;;;;;;;;;;;;;;5087892;28;19934;-61
2021/10/15 11:16:13;;;;;;;;;;;;;;;;;;5088944;28;19924;-61
2021/10/15 11:18:40;;;;;;;;;;;;;;;;;;5082525;28;19932;-59
2021/10/15 11:21:07;;;;;;;;;;;;;;;;;;5087203;28;19954;-59
2021/10/15 11:23:39;;;;;;;;;;;;;;;;;;5081299;28;19931;-60
2021/10/15 11:26:06;;;;;;;;;;;;;;;;;;5084518;28;19978;-61
2021/10/15 11:28:33;;;;;;;;;;;;;;;;;;5087482;28;20299;-60
2021/10/15 11:31:00;;;;;;;;;;;;;;;;;;5085876;28;20390;-60
2021/10/15 11:33:27;;;;;;;;;;;;;;;;;;5076709;28;19924;-60
2021/10/15 11:35:54;;;;;;;;;;;;;;;;;;5086656;28;20276;-60
2021/10/15 11:38:21;;;;;;;;;;;;;;;;;;5086332;28;19932;-60
2021/10/15 11:40:48;;;;;;;;;;;;;;;;;;5088157;28;19939;-60
2021/10/15 11:43:15;;;;;;;;;;;;;;;;;;5091907;28;20040;-61
2021/10/15 11:45:42;;;;;;;;;;;;;;;;;;5086205;28;19938;-60
2021/10/15 11:48:09;;;;;;;;;;;;;;;;;;5087063;28;19946;-60
2021/10/15 11:50:36;;;;;;;;;;;;;;;;;;5084803;28;20053;-60
2021/10/15 11:53:03;;;;;;;;;;;;;;;;;;5080381;28;19935;-61
2021/10/15 11:55:31;;;;;;;;;;;;;;;;;;5083977;28;19924;-61
2021/10/15 11:57:58;;;;;;;;;;;;;;;;;;5085109;28;19924;-60
2021/10/15 12:00:25;;;;;;;;;;;;;;;;;;5089578;28;20354;-60
2021/10/15 12:02:52;;;;;;;;;;;;;;;;;;5084414;28;19924;-60
2021/10/15 12:05:19;;;;;;;;;;;;;;;;;;5085980;28;19971;-61
2021/10/15 12:07:46;;;;;;;;;;;;;;;;;;5084367;28;19928;-60
2021/10/15 12:10:13;;;;;;;;;;;;;;;;;;5081389;28;19928;-60
2021/10/15 12:12:40;;;;;;;;;;;;;;;;;;5085145;28;19932;-59
2021/10/15 12:15:07;;;;;;;;;;;;;;;;;;5087144;28;19928;-60
2021/10/15 12:17:34;;;;;;;;;;;;;;;;;;5082541;28;19924;-60
2021/10/15 12:20:01;;;;;;;;;;;;;;;;;;5084854;28;20015;-59
2021/10/15 12:22:28;;;;;;;;;;;;;;;;;;5086739;28;19975;-59
2021/10/15 12:24:56;;;;;;;;;;;;;;;;;;5086466;28;19931;-60
2021/10/15 12:27:24;;;;;;;;;;;;;;;;;;5085853;28;19924;-59
2021/10/15 12:29:51;;;;;;;;;;;;;;;;;;5089497;28;20096;-59
2021/10/15 12:32:18;;;;;;;;;;;;;;;;;;5087875;28;19932;-60
2021/10/15 12:34:45;;;;;;;;;;;;;;;;;;5079227;28;19931;-59
2021/10/15 12:37:12;;;;;;;;;;;;;;;;;;5088127;28;20303;-61
2021/10/15 12:39:39;;;;;;;;;;;;;;;;;;5078620;28;19930;-60
2021/10/15 12:42:06;;;;;;;;;;;;;;;;;;5086946;28;20040;-61
2021/10/15 12:44:33;;;;;;;;;;;;;;;;;;5082753;28;20016;-61
2021/10/15 12:47:00;;;;;;;;;;;;;;;;;;5087403;28;20019;-60
2021/10/15 12:49:27;;;;;;;;;;;;;;;;;;5086897;28;19924;-61
2021/10/15 12:51:54;;;;;;;;;;;;;;;;;;5090501;28;19925;-60
2021/10/15 12:54:21;;;;;;;;;;;;;;;;;;5092360;28;20022;-61
2021/10/15 12:56:48;;;;;;;;;;;;;;;;;;5089041;28;19931;-62
2021/10/15 12:59:18;;;;;;;;;;;;;;;;;;5087337;28;19977;-60
2021/10/15 13:01:45;;;;;;;;;;;;;;;;;;5088605;28;19986;-60
2021/10/15 13:04:12;;;;;;;;;;;;;;;;;;5086350;28;19924;-60
2021/10/15 13:06:39;;;;;;;;;;;;;;;;;;5087666;28;19924;-62
2021/10/15 13:09:07;;;;;;;;;;;;;;;;;;5087186;28;19946;-59
2021/10/15 13:11:33;;;;;;;;;;;;;;;;;;5084089;28;19931;-60
2021/10/15 13:14:00;;;;;;;;;;;;;;;;;;5088040;28;19932;-60
2021/10/15 13:16:27;;;;;;;;;;;;;;;;;;5083372;28;19924;-60
2021/10/15 13:18:54;;;;;;;;;;;;;;;;;;5085938;28;19924;-60
2021/10/15 13:21:21;;;;;;;;;;;;;;;;;;5087150;28;19937;-59
2021/10/15 13:23:48;;;;;;;;;;;;;;;;;;5085596;28;19935;-60
2021/10/15 13:26:15;;;;;;;;;;;;;;;;;;5089782;28;19924;-60
2021/10/15 13:28:42;;;;;;;;;;;;;;;;;;5090014;28;19930;-60
2021/10/15 13:31:09;;;;;;;;;;;;;;;;;;5094410;28;19931;-60
2021/10/15 13:33:36;;;;;;;;;;;;;;;;;;5082013;28;19932;-59
2021/10/15 13:36:03;;;;;;;;;;;;;;;;;;5083172;28;20008;-59
2021/10/15 13:38:31;;;;;;;;;;;;;;;;;;5087789;28;19932;-59
2021/10/15 13:41:04;;;;;;;;;;;;;;;;;;5086016;28;19975;-59
2021/10/15 13:43:44;;;;;;;;;;;;;;;;;;5084855;28;19924;-59
2021/10/15 13:51:48;;;;;;;;;;;;;;;;;;5082280;28;19923;-61
2021/10/15 13:54:16;;;;;;;;;;;;;;;;;;5089323;28;19935;-61
2021/10/15 13:56:43;;;;;;;;;;;;;;;;;;5084952;28;20306;-60
2021/10/15 13:59:13;;;;;;;;;;;;;;;;;;5089777;28;19924;-60
2021/10/15 14:01:42;;;;;;;;;;;;;;;;;;5086494;28;20388;-60
2021/10/15 14:06:53;;;;;;;;;;;;;;;;;;5081678;28;19920;-59
2021/10/15 14:09:20;;;;;;;;;;;;;;;;;;5084766;28;19931;-61
2021/10/15 14:11:47;;;;;;;;;;;;;;;;;;5085462;28;19947;-61
2021/10/15 14:14:15;;;;;;;;;;;;;;;;;;5092397;28;19924;-60
2021/10/15 14:16:42;;;;;;;;;;;;;;;;;;5087311;28;20008;-60
2021/10/15 14:19:09;;;;;;;;;;;;;;;;;;5087857;28;19928;-60
2021/10/15 14:21:38;;;;;;;;;;;;;;;;;;5085450;28;19935;-60
2021/10/15 14:24:05;;;;;;;;;;;;;;;;;;5085527;28;19936;-60
2021/10/15 14:26:32;;;;;;;;;;;;;;;;;;5081774;28;20315;-61
2021/10/15 14:28:59;;;;;;;;;;;;;;;;;;5088156;28;19924;-60
2021/10/15 14:31:26;;;;;;;;;;;;;;;;;;5085394;28;19924;-61
2021/10/15 14:33:53;;;;;;;;;;;;;;;;;;5087137;28;19924;-60
2021/10/15 14:36:20;;;;;;;;;;;;;;;;;;5088149;28;19930;-61
2021/10/15 14:38:47;;;;;;;;;;;;;;;;;;5084582;28;20406;-60
2021/10/15 14:41:14;;;;;;;;;;;;;;;;;;5086262;28;20308;-60
2021/10/15 14:43:41;;;;;;;;;;;;;;;;;;5090418;28;19947;-60
2021/10/15 14:46:09;;;;;;;;;;;;;;;;;;5094490;28;19924;-58
2021/10/15 14:48:36;;;;;;;;;;;;;;;;;;5088866;28;19928;-60
2021/10/15 14:51:03;;;;;;;;;;;;;;;;;;5089100;28;20272;-60
2021/10/15 14:53:30;;;;;;;;;;;;;;;;;;5090901;28;19931;-61
2021/10/15 14:55:57;;;;;;;;;;;;;;;;;;5088457;28;19934;-60
2021/10/15 14:58:24;;;;;;;;;;;;;;;;;;5088227;28;19924;-60
2021/10/15 15:00:55;;;;;;;;;;;;;;;;;;5087712;28;19929;-60
2021/10/15 15:03:22;;;;;;;;;;;;;;;;;;5086502;28;20505;-60
2021/10/15 15:05:49;;;;;;;;;;;;;;;;;;5088912;28;20396;-60
2021/10/15 15:08:16;;;;;;;;;;;;;;;;;;5085688;28;20023;-61
2021/10/15 15:10:43;;;;;;;;;;;;;;;;;;5083795;28;19924;-60
2021/10/15 15:13:10;;;;;;;;;;;;;;;;;;5084668;28;19932;-61
2021/10/15 15:15:37;;;;;;;;;;;;;;;;;;5089333;28;20299;-62
2021/10/15 15:18:04;;;;;;;;;;;;;;;;;;5087084;28;19924;-62
2021/10/15 15:20:32;;;;;;;;;;;;;;;;;;5085804;28;20548;-61
2021/10/15 15:22:59;;;;;;;;;;;;;;;;;;5084960;28;21694;-61
2021/10/15 15:25:26;;;;;;;;;;;;;;;;;;5085697;28;19928;-61
2021/10/15 15:27:53;;;;;;;;;;;;;;;;;;5087685;28;19987;-61
2021/10/15 15:30:20;;;;;;;;;;;;;;;;;;5082005;28;20056;-61
2021/10/15 15:32:47;;;;;;;;;;;;;;;;;;5084313;28;19928;-60
2021/10/15 15:35:15;;;;;;;;;;;;;;;;;;5087602;28;20339;-61
2021/10/15 15:37:42;;;;;;;;;;;;;;;;;;5081841;28;19924;-61
2021/10/15 15:40:09;;;;;;;;;;;;;;;;;;5085717;28;19932;-61
2021/10/15 15:45:12;;;;;;;;;;;;;;;;;;5024771;28;19925;-68
2021/10/15 15:47:39;;;;;;;;;;;;;;;;;;5028905;28;20304;-68
2021/10/15 15:50:06;;;;;;;;;;;;;;;;;;5019362;28;19925;-67
2021/10/15 15:52:33;;;;;;;;;;;;;;;;;;5029554;28;19926;-68
2021/10/15 15:55:00;;;;;;;;;;;;;;;;;;5012264;28;19926;-68
2021/10/15 15:57:27;;;;;;;;;;;;;;;;;;5004678;28;19929;-68
2021/10/15 15:59:53;;;;;;;;;;;;;;;;;;5006000;28;19933;-68
2021/10/15 16:02:20;;;;;;;;;;;;;;;;;;5007002;28;20016;-68
2021/10/15 16:04:47;;;;;;;;;;;;;;;;;;5009739;28;20208;-68
2021/10/15 16:07:14;;;;;;;;;;;;;;;;;;5010173;28;19972;-68
2021/10/15 16:09:41;;;;;;;;;;;;;;;;;;5002597;28;19926;-68
2021/10/15 16:12:08;;;;;;;;;;;;;;;;;;5013747;28;19925;-68
2021/10/15 16:14:35;;;;;;;;;;;;;;;;;;5006760;28;20023;-68
2021/10/15 16:17:02;;;;;;;;;;;;;;;;;;5010051;28;20075;-68
2021/10/15 16:19:29;;;;;;;;;;;;;;;;;;5006415;28;20309;-68
2021/10/15 16:21:56;;;;;;;;;;;;;;;;;;5003891;28;20316;-68
2021/10/15 16:24:23;;;;;;;;;;;;;;;;;;5014333;28;20415;-68
2021/10/15 16:26:50;;;;;;;;;;;;;;;;;;5016756;28;19926;-68
2021/10/15 16:29:18;;;;;;;;;;;;;;;;;;5010827;28;19932;-69
2021/10/15 16:31:45;;;;;;;;;;;;;;;;;;5012512;28;19925;-68
2021/10/15 16:34:12;;;;;;;;;;;;;;;;;;5009565;28;20020;-68
2021/10/15 16:36:39;;;;;;;;;;;;;;;;;;5015515;28;20311;-68
2021/10/15 16:39:06;;;;;;;;;;;;;;;;;;5007369;28;19925;-67
2021/10/15 16:41:32;;;;;;;;;;;;;;;;;;5007705;28;19932;-68
2021/10/15 16:43:59;;;;;;;;;;;;;;;;;;5012553;28;20290;-68
2021/10/15 16:46:26;;;;;;;;;;;;;;;;;;5010116;28;19929;-69
2021/10/15 16:48:53;;;;;;;;;;;;;;;;;;5009647;28;19931;-67
2021/10/15 16:51:20;;;;;;;;;;;;;;;;;;5012784;28;19932;-67
2021/10/15 16:53:47;;;;;;;;;;;;;;;;;;5012614;28;19925;-67
2021/10/15 16:56:14;;;;;;;;;;;;;;;;;;5011926;28;20020;-68
2021/10/15 16:58:41;;;;;;;;;;;;;;;;;;5011956;28;20382;-68
2021/10/15 17:01:08;;;;;;;;;;;;;;;;;;5007017;28;20008;-66
2021/10/15 17:03:35;;;;;;;;;;;;;;;;;;5014901;28;20428;-66
2021/10/15 17:06:02;;;;;;;;;;;;;;;;;;5011533;28;20348;-66